createdAt,value
2018-09-04T05:31:32.000Z,93
2018-09-04T05:32:32.000Z,92
2018-09-04T05:33:33.000Z,92
2018-09-04T05:34:33.000Z,92
2018-09-04T05:35:32.000Z,92
2018-09-04T05:36:33.000Z,92
2018-09-04T05:37:33.000Z,92
2018-09-04T05:38:32.000Z,92
2018-09-04T05:39:33.000Z,93
2018-09-04T05:40:32.000Z,93
2018-09-04T05:41:30.000Z,93
2018-09-04T05:42:30.000Z,93
2018-09-04T05:43:30.000Z,93
2018-09-04T05:44:30.000Z,92
2018-09-04T05:45:30.000Z,92
2018-09-04T14:50:32.000Z,47
2018-09-04T14:51:29.000Z,47
2018-09-04T14:52:29.000Z,47
2018-09-04T14:53:29.000Z,48
2018-09-04T14:54:29.000Z,51
2018-09-04T14:55:29.000Z,49
2018-09-04T14:56:29.000Z,49
2018-09-04T14:57:30.000Z,50
2018-09-04T14:59:30.000Z,50
2018-09-04T15:00:30.000Z,50
2018-09-04T15:01:29.000Z,49
2018-09-04T15:02:29.000Z,50
2018-09-04T15:03:30.000Z,50
2018-09-04T15:04:29.000Z,49
2018-09-04T15:05:29.000Z,47
2018-09-04T15:06:29.000Z,47
2018-09-04T15:07:30.000Z,48
2018-09-04T15:08:30.000Z,48
2018-09-04T15:09:30.000Z,50
2018-09-04T15:10:30.000Z,50
2018-09-04T15:11:29.000Z,53
2018-09-04T15:12:29.000Z,51
2018-09-04T15:13:29.000Z,52
2018-09-04T15:14:29.000Z,52
2018-09-04T15:15:29.000Z,52
2018-09-04T15:16:29.000Z,49
2018-09-04T15:17:29.000Z,51
2018-09-04T15:19:29.000Z,55
